createdAt,value
2023-01-24T00:00:53.199Z,2.80
2023-01-24T00:03:38.441Z,2.77
2023-01-24T00:06:23.294Z,2.78
2023-01-24T00:09:08.137Z,2.77
2023-01-24T00:11:52.869Z,2.76
2023-01-24T00:14:37.687Z,2.78
2023-01-24T00:17:22.795Z,2.73
2023-01-24T00:20:08.422Z,2.75
2023-01-24T00:22:53.515Z,2.77
2023-01-24T00:25:38.292Z,2.78
2023-01-24T00:28:23.191Z,2.75
2023-01-24T00:31:08.383Z,2.80
2023-01-24T00:33:53.232Z,2.78
2023-01-24T00:36:38.071Z,2.75
2023-01-24T00:39:22.863Z,2.74
2023-01-24T00:42:07.873Z,2.76
2023-01-24T00:44:53.038Z,2.72
2023-01-24T00:47:38.249Z,2.72
2023-01-24T00:50:23.212Z,2.71
2023-01-24T00:53:08.877Z,2.71
2023-01-24T00:55:55.745Z,2.70
2023-01-24T00:58:40.903Z,2.76
2023-01-24T01:01:25.907Z,2.74
2023-01-24T01:04:13.100Z,2.75
2023-01-24T01:06:58.435Z,2.68
2023-01-24T01:09:43.410Z,2.65
2023-01-24T01:12:28.207Z,2.72
2023-01-24T01:15:13.096Z,2.66
2023-01-24T01:17:59.348Z,2.67
2023-01-24T01:20:50.672Z,2.68
2023-01-24T01:23:35.819Z,2.70
2023-01-24T01:26:22.064Z,2.63
2023-01-24T01:29:07.087Z,2.63
2023-01-24T01:31:52.215Z,2.65
2023-01-24T01:34:37.565Z,2.67
2023-01-24T01:37:22.744Z,2.65
2023-01-24T01:40:08.480Z,2.66
2023-01-24T01:42:56.445Z,2.62
2023-01-24T01:45:52.814Z,2.63
2023-01-24T01:48:45.133Z,2.60
2023-01-24T01:51:44.181Z,2.61
2023-01-24T01:54:34.596Z,2.62
2023-01-24T01:57:24.082Z,2.62
2023-01-24T02:00:15.946Z,2.64
2023-01-24T02:03:26.070Z,2.61
2023-01-24T02:06:51.245Z,2.58
2023-01-24T02:09:44.975Z,2.58
2023-01-24T02:12:37.236Z,2.61
2023-01-24T02:15:42.143Z,2.65
2023-01-24T02:18:27.324Z,2.62
2023-01-24T02:21:15.981Z,2.59
2023-01-24T02:24:14.130Z,2.59
2023-01-24T02:26:59.179Z,2.62
2023-01-24T02:29:44.099Z,2.58
2023-01-24T02:32:29.052Z,2.59
2023-01-24T02:35:26.758Z,2.55
2023-01-24T02:38:20.787Z,2.54
2023-01-24T02:41:08.321Z,2.50
2023-01-24T02:43:57.599Z,2.51
2023-01-24T02:46:45.798Z,2.53
2023-01-24T02:49:30.794Z,2.50
2023-01-24T02:52:34.453Z,2.48
2023-01-24T02:55:21.532Z,2.47
2023-01-24T02:58:07.430Z,2.45
2023-01-24T03:00:52.708Z,2.40
2023-01-24T03:03:38.142Z,2.45
2023-01-24T03:06:23.043Z,2.44
2023-01-24T03:09:19.558Z,2.42
2023-01-24T03:12:25.952Z,2.38
2023-01-24T03:15:30.025Z,2.37
2023-01-24T03:18:33.897Z,2.35
2023-01-24T03:21:37.833Z,2.39
2023-01-24T03:24:41.678Z,2.35
2023-01-24T03:27:45.502Z,2.38
2023-01-24T03:30:49.280Z,2.36
2023-01-24T03:33:53.192Z,2.32
2023-01-24T03:36:38.265Z,2.31
2023-01-24T03:39:41.926Z,2.35
2023-01-24T03:42:27.651Z,2.35
2023-01-24T03:45:17.220Z,2.34
2023-01-24T03:48:05.629Z,2.32
2023-01-24T03:51:12.021Z,2.23
2023-01-24T03:53:57.625Z,2.19
2023-01-24T03:56:42.388Z,2.25
2023-01-24T03:59:27.212Z,2.22
2023-01-24T04:02:11.949Z,2.21
2023-01-24T04:05:14.958Z,2.18
2023-01-24T04:07:59.902Z,2.19
2023-01-24T04:10:45.128Z,2.12
2023-01-24T04:13:30.318Z,2.13
2023-01-24T04:16:15.584Z,2.19
2023-01-24T04:19:00.544Z,2.15
2023-01-24T04:21:45.302Z,2.07
2023-01-24T04:24:30.300Z,2.10
2023-01-24T04:27:15.660Z,2.15
2023-01-24T04:30:00.690Z,2.20
2023-01-24T04:32:45.623Z,2.02
2023-01-24T04:35:30.893Z,2.04
2023-01-24T04:38:16.120Z,2.06
2023-01-24T04:41:02.075Z,2.09
2023-01-24T04:43:47.003Z,2.10
2023-01-24T04:46:31.853Z,2.10
2023-01-24T04:49:16.911Z,2.06
2023-01-24T04:52:01.956Z,2.05
2023-01-24T04:54:46.843Z,2.05
2023-01-24T04:57:31.780Z,2.06
2023-01-24T05:00:16.976Z,1.95
2023-01-24T05:03:01.884Z,1.93
2023-01-24T05:05:50.813Z,1.91
2023-01-24T05:08:35.678Z,1.95
2023-01-24T05:11:21.057Z,1.93
2023-01-24T05:14:05.864Z,1.91
2023-01-24T05:16:50.790Z,1.96
2023-01-24T05:19:35.577Z,1.97
2023-01-24T05:22:20.425Z,1.99
2023-01-24T05:25:05.701Z,1.95
2023-01-24T05:27:50.723Z,1.97
2023-01-24T05:30:35.700Z,1.99
2023-01-24T05:33:20.518Z,1.99
2023-01-24T05:36:24.702Z,1.93
2023-01-24T05:39:09.487Z,1.98
2023-01-24T05:41:54.384Z,1.99
2023-01-24T05:44:39.341Z,1.96
2023-01-24T05:47:24.491Z,1.98
2023-01-24T05:50:10.534Z,1.98
2023-01-24T05:52:55.668Z,1.98
2023-01-24T05:55:40.667Z,2.07
2023-01-24T05:58:26.833Z,2.03
2023-01-24T06:01:18.333Z,1.97
2023-01-24T06:04:05.202Z,1.95
2023-01-24T06:06:50.723Z,1.98
2023-01-24T06:09:35.565Z,2.07
2023-01-24T06:12:20.327Z,2.05
2023-01-24T06:15:05.661Z,2.04
2023-01-24T06:17:50.311Z,2.02
2023-01-24T06:20:35.348Z,2.03
2023-01-24T06:23:26.033Z,1.98
2023-01-24T06:26:11.851Z,1.97
2023-01-24T06:28:57.203Z,1.93
2023-01-24T06:32:02.336Z,1.94
2023-01-24T06:35:11.923Z,1.99
2023-01-24T06:37:59.008Z,2.00
2023-01-24T06:40:44.305Z,2.07
2023-01-24T06:43:29.780Z,2.03
2023-01-24T06:46:14.893Z,2.04
2023-01-24T06:49:00.054Z,2.01
2023-01-24T06:51:51.167Z,2.02
2023-01-24T06:54:36.657Z,2.09
2023-01-24T06:57:21.723Z,1.97
2023-01-24T07:00:07.447Z,2.00
2023-01-24T07:03:03.795Z,1.95
2023-01-24T07:05:48.873Z,2.05
2023-01-24T07:08:34.048Z,2.01
2023-01-24T07:11:18.893Z,2.07
2023-01-24T07:14:03.832Z,2.00
2023-01-24T07:16:50.549Z,1.95
2023-01-24T07:19:35.965Z,1.95
2023-01-24T07:22:21.284Z,1.92
2023-01-24T07:25:13.044Z,1.98
2023-01-24T07:27:58.159Z,1.94
2023-01-24T07:30:45.888Z,1.99
2023-01-24T07:33:31.306Z,2.04
2023-01-24T07:36:17.306Z,1.99
2023-01-24T07:39:02.094Z,2.02
2023-01-24T07:41:46.814Z,1.99
2023-01-24T07:44:31.574Z,2.01
2023-01-24T07:47:16.489Z,2.07
2023-01-24T07:50:01.708Z,1.99
2023-01-24T07:52:50.334Z,1.84
2023-01-24T07:55:35.408Z,2.02
2023-01-24T07:58:20.301Z,2.01
2023-01-24T08:01:05.231Z,2.00
2023-01-24T08:03:50.810Z,2.01
2023-01-24T08:06:36.383Z,2.03
2023-01-24T08:09:21.767Z,2.03
2023-01-24T08:12:06.672Z,2.10
2023-01-24T08:14:51.792Z,1.91
2023-01-24T08:17:37.986Z,2.04
2023-01-24T08:20:23.257Z,2.07
2023-01-24T08:23:08.322Z,2.02
2023-01-24T08:25:53.126Z,2.09
2023-01-24T08:28:37.977Z,2.05
2023-01-24T08:31:22.906Z,2.11
2023-01-24T08:34:08.080Z,2.17
2023-01-24T08:36:52.916Z,2.26
2023-01-24T08:39:37.697Z,2.25
2023-01-24T08:42:25.495Z,2.24
2023-01-24T08:45:11.001Z,2.07
2023-01-24T08:47:55.831Z,2.11
2023-01-24T08:50:41.739Z,2.16
2023-01-24T08:53:29.259Z,2.28
2023-01-24T08:56:14.273Z,2.27
2023-01-24T08:58:59.085Z,2.23
2023-01-24T09:01:43.967Z,2.22
2023-01-24T09:04:28.923Z,2.16
2023-01-24T09:07:14.119Z,2.18
2023-01-24T09:09:58.890Z,2.09
2023-01-24T09:12:43.948Z,2.28
2023-01-24T09:15:28.942Z,2.27
2023-01-24T09:18:14.102Z,2.19
2023-01-24T09:21:03.956Z,2.20
2023-01-24T09:23:48.877Z,2.18
2023-01-24T09:26:33.673Z,2.42
2023-01-24T09:29:19.590Z,2.38
2023-01-24T09:32:04.440Z,2.36
2023-01-24T09:34:49.432Z,2.43
2023-01-24T09:37:34.515Z,2.41
2023-01-24T09:40:27.153Z,2.32
2023-01-24T09:43:37.687Z,2.28
2023-01-24T09:46:29.141Z,2.38
2023-01-24T09:49:32.631Z,2.42
2023-01-24T09:52:40.550Z,2.33
2023-01-24T09:55:37.912Z,2.34
2023-01-24T09:58:44.248Z,2.28
2023-01-24T10:01:29.160Z,2.44
2023-01-24T10:04:21.688Z,2.22
2023-01-24T10:07:15.662Z,2.44
2023-01-24T10:10:14.891Z,2.46
2023-01-24T10:13:11.191Z,2.52
2023-01-24T10:16:29.531Z,2.55
2023-01-24T10:19:56.617Z,2.64
2023-01-24T10:22:56.928Z,2.48
2023-01-24T10:25:45.144Z,2.42
2023-01-24T10:28:39.400Z,2.32
2023-01-24T10:31:29.879Z,2.41
2023-01-24T10:34:32.447Z,2.44
2023-01-24T10:37:24.847Z,2.63
2023-01-24T10:40:15.565Z,2.74
2023-01-24T10:43:07.973Z,2.91
2023-01-24T10:46:11.004Z,2.99
2023-01-24T10:48:59.125Z,2.97
2023-01-24T10:51:44.069Z,2.88
2023-01-24T10:54:28.846Z,3.09
2023-01-24T10:57:20.556Z,3.09
2023-01-24T11:00:18.889Z,3.02
2023-01-24T11:03:23.875Z,2.63
2023-01-24T11:06:24.952Z,2.82
2023-01-24T11:09:15.933Z,3.06
2023-01-24T11:12:01.712Z,2.91
2023-01-24T11:14:49.698Z,2.87
2023-01-24T11:17:37.338Z,2.80
2023-01-24T11:20:33.862Z,2.88
2023-01-24T11:23:25.137Z,2.94
2023-01-24T11:26:25.883Z,2.59
2023-01-24T11:29:17.406Z,2.48
2023-01-24T11:32:27.587Z,2.78
2023-01-24T11:35:21.912Z,2.66
2023-01-24T11:38:23.995Z,2.80
2023-01-24T11:41:32.440Z,2.83
2023-01-24T11:45:02.967Z,2.89
2023-01-24T11:48:02.630Z,3.09
2023-01-24T11:51:14.361Z,2.79
2023-01-24T11:54:18.448Z,2.58
2023-01-24T11:57:08.371Z,2.51
2023-01-24T12:00:07.904Z,2.92
2023-01-24T12:03:15.053Z,2.90
2023-01-24T12:06:17.117Z,2.91
2023-01-24T12:09:07.381Z,2.92
2023-01-24T12:11:52.184Z,2.77
2023-01-24T12:14:57.323Z,2.71
2023-01-24T12:18:17.065Z,2.69
2023-01-24T12:21:10.070Z,2.77
2023-01-24T12:24:03.876Z,2.84
2023-01-24T12:26:58.282Z,2.85
2023-01-24T12:29:55.063Z,2.85
2023-01-24T12:32:47.643Z,2.83
2023-01-24T12:35:36.753Z,2.75
2023-01-24T12:38:37.434Z,2.87
2023-01-24T12:41:32.062Z,2.92
2023-01-24T12:44:29.927Z,2.70
2023-01-24T12:47:37.940Z,2.86
2023-01-24T12:50:40.049Z,2.92
2023-01-24T12:53:35.361Z,2.98
2023-01-24T12:56:29.094Z,2.94
2023-01-24T12:59:17.717Z,2.83
2023-01-24T13:02:30.535Z,2.69
2023-01-24T13:05:34.254Z,2.85
2023-01-24T13:08:19.403Z,2.84
2023-01-24T13:11:18.976Z,2.79
2023-01-24T13:14:17.156Z,2.73
2023-01-24T13:17:20.710Z,2.86
2023-01-24T13:20:24.982Z,2.88
2023-01-24T13:23:36.203Z,3.07
2023-01-24T13:26:34.660Z,3.08
2023-01-24T13:29:48.961Z,3.09
2023-01-24T13:32:39.619Z,2.98
2023-01-24T13:35:26.364Z,2.92
2023-01-24T13:38:27.739Z,2.73
2023-01-24T13:41:39.556Z,2.87
2023-01-24T13:44:24.368Z,2.90
2023-01-24T13:47:18.195Z,2.98
2023-01-24T13:50:15.582Z,3.03
2023-01-24T13:53:02.046Z,2.78
2023-01-24T13:56:01.567Z,2.67
2023-01-24T13:58:51.121Z,2.70
2023-01-24T14:01:46.047Z,2.82
2023-01-24T14:04:44.465Z,3.05
2023-01-24T14:07:37.583Z,2.58
2023-01-24T14:10:46.366Z,2.61
2023-01-24T14:13:47.597Z,2.56
2023-01-24T14:16:38.713Z,2.61
2023-01-24T14:19:30.378Z,2.67
2023-01-24T14:22:22.775Z,2.64
2023-01-24T14:25:42.337Z,2.72
2023-01-24T14:28:40.856Z,2.68
2023-01-24T14:31:38.115Z,2.57
2023-01-24T14:34:39.969Z,2.55
2023-01-24T14:37:27.019Z,2.62
2023-01-24T14:40:19.089Z,2.63
2023-01-24T14:43:06.380Z,2.70
2023-01-24T14:45:51.437Z,2.69
2023-01-24T14:48:36.692Z,2.64
2023-01-24T14:51:25.106Z,2.62
2023-01-24T14:54:20.578Z,2.50
2023-01-24T14:57:20.295Z,2.48
2023-01-24T15:00:18.178Z,2.46
2023-01-24T15:03:03.521Z,2.53
2023-01-24T15:05:51.878Z,2.67
2023-01-24T15:08:37.072Z,2.84
2023-01-24T15:11:29.269Z,2.65
2023-01-24T15:14:20.085Z,2.47
2023-01-24T15:17:05.076Z,2.53
2023-01-24T15:19:54.308Z,2.61
2023-01-24T15:22:40.826Z,2.68
2023-01-24T15:25:31.456Z,2.54
2023-01-24T15:28:27.514Z,2.63
2023-01-24T15:31:27.736Z,2.41
2023-01-24T15:34:20.797Z,2.44
2023-01-24T15:37:12.882Z,2.35
2023-01-24T15:39:59.173Z,2.38
2023-01-24T15:43:05.903Z,2.53
2023-01-24T15:46:16.697Z,2.51
2023-01-24T15:49:05.992Z,2.47
2023-01-24T15:52:08.531Z,2.47
2023-01-24T15:54:59.810Z,2.49
2023-01-24T15:57:44.561Z,2.46
2023-01-24T16:00:29.555Z,2.49
2023-01-24T16:03:14.621Z,2.54
2023-01-24T16:05:59.662Z,2.55
2023-01-24T16:08:44.502Z,2.58
2023-01-24T16:11:29.407Z,2.52
2023-01-24T16:14:23.885Z,2.51
2023-01-24T16:17:10.862Z,2.40
2023-01-24T16:19:55.889Z,2.48
2023-01-24T16:22:40.647Z,2.51
2023-01-24T16:25:25.459Z,2.31
2023-01-24T16:28:23.176Z,2.28
2023-01-24T16:31:09.283Z,2.40
2023-01-24T16:33:54.166Z,2.48
2023-01-24T16:36:40.017Z,2.40
2023-01-24T16:39:25.038Z,2.44
2023-01-24T16:42:15.488Z,2.48
2023-01-24T16:45:00.990Z,2.38
2023-01-24T16:47:46.826Z,2.33
2023-01-24T16:50:32.926Z,2.12
2023-01-24T16:53:17.832Z,2.19
2023-01-24T16:56:03.157Z,2.19
2023-01-24T16:58:48.195Z,2.24
2023-01-24T17:01:33.091Z,2.24
2023-01-24T17:04:17.892Z,2.09
2023-01-24T17:07:04.435Z,2.17
2023-01-24T17:09:49.227Z,2.19
2023-01-24T17:12:34.011Z,2.07
2023-01-24T17:15:18.869Z,2.07
2023-01-24T17:18:04.010Z,2.10
2023-01-24T17:20:48.856Z,2.11
2023-01-24T17:23:35.746Z,2.13
2023-01-24T17:26:20.856Z,2.11
2023-01-24T17:29:05.727Z,2.09
2023-01-24T17:31:50.509Z,1.99
2023-01-24T17:34:35.964Z,2.01
2023-01-24T17:37:21.041Z,2.07
2023-01-24T17:40:07.447Z,2.00
2023-01-24T17:42:52.685Z,2.02
2023-01-24T17:45:37.431Z,2.01
2023-01-24T17:48:22.878Z,2.06
2023-01-24T17:51:17.314Z,2.18
2023-01-24T17:54:03.968Z,2.26
2023-01-24T17:56:48.716Z,2.30
2023-01-24T17:59:34.161Z,2.23
2023-01-24T18:02:18.889Z,2.05
2023-01-24T18:05:04.295Z,2.15
2023-01-24T18:07:49.427Z,2.18
2023-01-24T18:10:37.416Z,2.17
2023-01-24T18:13:22.639Z,2.17
2023-01-24T18:16:10.187Z,2.21
2023-01-24T18:18:55.687Z,2.03
2023-01-24T18:21:42.027Z,2.11
2023-01-24T18:24:27.202Z,2.12
2023-01-24T18:27:12.073Z,2.08
2023-01-24T18:29:56.785Z,1.91
2023-01-24T18:32:41.742Z,2.02
2023-01-24T18:35:26.724Z,2.11
2023-01-24T18:38:11.830Z,1.96
2023-01-24T18:40:56.826Z,2.06
2023-01-24T18:43:42.010Z,2.16
2023-01-24T18:46:27.424Z,2.15
2023-01-24T18:49:12.363Z,2.09
2023-01-24T18:51:57.735Z,2.13
2023-01-24T18:54:42.737Z,2.08
2023-01-24T18:57:27.909Z,2.01
2023-01-24T19:00:13.132Z,2.06
2023-01-24T19:02:57.950Z,1.92
2023-01-24T19:05:45.954Z,1.76
2023-01-24T19:08:31.202Z,1.96
2023-01-24T19:11:16.330Z,1.99
2023-01-24T19:14:02.908Z,1.85
2023-01-24T19:16:48.389Z,1.90
2023-01-24T19:19:33.440Z,1.77
2023-01-24T19:22:18.780Z,1.96
2023-01-24T19:25:03.858Z,1.90
2023-01-24T19:27:48.891Z,2.01
2023-01-24T19:30:33.694Z,1.98
2023-01-24T19:33:18.944Z,2.00
2023-01-24T19:36:09.284Z,1.94
2023-01-24T19:38:56.770Z,1.91
2023-01-24T19:41:41.954Z,1.72
2023-01-24T19:44:27.171Z,1.90
2023-01-24T19:47:12.253Z,1.95
2023-01-24T19:49:57.144Z,1.85
2023-01-24T19:52:42.020Z,1.89
2023-01-24T19:55:26.980Z,1.94
2023-01-24T19:58:11.960Z,1.67
2023-01-24T20:01:05.583Z,1.82
2023-01-24T20:03:51.134Z,1.78
2023-01-24T20:06:36.369Z,1.75
2023-01-24T20:09:22.339Z,1.80
2023-01-24T20:12:07.435Z,1.71
2023-01-24T20:14:52.223Z,1.74
2023-01-24T20:17:37.088Z,1.78
2023-01-24T20:20:22.144Z,1.87
2023-01-24T20:23:08.205Z,1.69
2023-01-24T20:25:53.120Z,1.82
2023-01-24T20:28:39.732Z,1.90
2023-01-24T20:31:26.569Z,1.87
2023-01-24T20:34:12.112Z,1.96
2023-01-24T20:36:57.147Z,1.65
2023-01-24T20:39:45.200Z,1.54
2023-01-24T20:42:30.770Z,1.52
2023-01-24T20:45:15.849Z,1.58
2023-01-24T20:48:00.671Z,1.59
2023-01-24T20:50:53.633Z,1.68
2023-01-24T20:53:38.349Z,1.75
2023-01-24T20:56:23.708Z,1.82
2023-01-24T20:59:09.451Z,1.87
2023-01-24T21:01:54.699Z,1.94
2023-01-24T21:04:39.773Z,1.98
2023-01-24T21:07:24.632Z,1.82
2023-01-24T21:10:10.780Z,1.70
2023-01-24T21:12:55.804Z,1.68
2023-01-24T21:15:41.043Z,1.79
2023-01-24T21:18:27.255Z,1.82
2023-01-24T21:21:12.320Z,1.47
2023-01-24T21:23:59.021Z,1.51
2023-01-24T21:26:44.569Z,1.58
2023-01-24T21:29:30.018Z,1.67
2023-01-24T21:32:14.793Z,1.75
2023-01-24T21:34:59.489Z,1.75
2023-01-24T21:37:44.407Z,1.71
2023-01-24T21:40:49.453Z,1.74
2023-01-24T21:43:34.337Z,1.60
2023-01-24T21:46:19.309Z,1.61
2023-01-24T21:49:07.317Z,1.69
2023-01-24T21:52:00.673Z,1.65
2023-01-24T21:54:45.556Z,1.76
2023-01-24T21:57:49.146Z,1.78
2023-01-24T22:00:34.233Z,1.60
2023-01-24T22:03:25.177Z,1.65
2023-01-24T22:06:10.352Z,1.75
2023-01-24T22:08:55.770Z,1.76
2023-01-24T22:11:40.840Z,1.69
2023-01-24T22:14:28.448Z,1.78
2023-01-24T22:17:16.822Z,1.79
2023-01-24T22:20:01.949Z,1.70
2023-01-24T22:23:06.955Z,1.77
2023-01-24T22:26:07.365Z,1.55
2023-01-24T22:28:52.804Z,1.54
2023-01-24T22:31:38.288Z,1.51
2023-01-24T22:34:23.635Z,1.65
2023-01-24T22:37:14.754Z,1.62
2023-01-24T22:39:59.664Z,1.68
2023-01-24T22:42:44.593Z,1.60
2023-01-24T22:45:30.155Z,1.40
2023-01-24T22:48:16.189Z,1.45
2023-01-24T22:51:01.229Z,1.56
2023-01-24T22:53:46.263Z,1.71
2023-01-24T22:56:31.112Z,1.64
2023-01-24T22:59:15.854Z,1.61
2023-01-24T23:02:00.804Z,1.57
2023-01-24T23:04:45.973Z,1.56
2023-01-24T23:07:30.759Z,1.50
2023-01-24T23:10:15.905Z,1.55
2023-01-24T23:13:19.887Z,1.58
2023-01-24T23:16:11.139Z,1.55
2023-01-24T23:19:17.179Z,1.45
2023-01-24T23:22:02.154Z,1.53
2023-01-24T23:24:48.332Z,1.57
2023-01-24T23:27:36.379Z,1.57
2023-01-24T23:30:30.459Z,1.60
2023-01-24T23:33:21.496Z,1.59
2023-01-24T23:36:07.641Z,1.67
2023-01-24T23:38:52.859Z,1.33
2023-01-24T23:41:37.592Z,1.21
2023-01-24T23:44:22.820Z,1.35
2023-01-24T23:47:08.679Z,1.22
2023-01-24T23:49:54.101Z,1.36
2023-01-24T23:52:39.868Z,1.43
2023-01-24T23:55:24.612Z,1.50
2023-01-24T23:58:09.476Z,1.36
